Time;durP1;ratioP1;P1;durP2;ratioP2;P2;SDS_P1;SDS_P2;PMS_P1;PMS_P2;Temp;Humidity;BMP_temperature;BMP_pressure;BME280_temperature;BME280_humidity;BME280_pressure;Samples;Min_cycle;Max_cycle;Signal;HPM_P1;HPM_P2
2022/06/01 00:00:57;;;;;;;1.10;1.10;;;;;;;;;;5075794;28;20195;-87
2022/06/01 00:03:25;;;;;;;1.63;1.27;;;;;;;;;;5060565;28;20209;-86
2022/06/01 00:05:54;;;;;;;0.70;0.70;;;;;;;;;;5074143;28;20214;-86
2022/06/01 00:08:22;;;;;;;5.17;1.50;;;;;;;;;;5058522;28;20292;-87
2022/06/01 00:10:51;;;;;;;1.57;1.30;;;;;;;;;;5090131;28;20197;-87
2022/06/01 00:13:22;;;;;;;0.73;0.73;;;;;;;;;;5089705;28;20202;-87
2022/06/01 00:15:50;;;;;;;1.37;1.27;;;;;;;;;;5089983;28;20251;-86
2022/06/01 00:18:19;;;;;;;0.90;0.90;;;;;;;;;;5072458;28;20214;-86
2022/06/01 00:20:47;;;;;;;0.50;0.50;;;;;;;;;;5073729;28;20203;-86
2022/06/01 00:23:16;;;;;;;2.23;2.13;;;;;;;;;;5089506;28;20209;-87
2022/06/01 00:25:44;;;;;;;0.67;0.67;;;;;;;;;;5088101;28;20198;-86
2022/06/01 00:28:12;;;;;;;0.70;0.70;;;;;;;;;;5089401;28;20191;-86
2022/06/01 00:30:42;;;;;;;1.17;1.17;;;;;;;;;;5073591;28;20210;-86
2022/06/01 00:33:11;;;;;;;1.03;1.03;;;;;;;;;;5089570;28;20301;-86
2022/06/01 00:35:39;;;;;;;1.63;1.53;;;;;;;;;;5072730;28;20201;-86
2022/06/01 00:38:08;;;;;;;0.67;0.67;;;;;;;;;;5072948;28;20210;-86
2022/06/01 00:40:40;;;;;;;2.07;1.40;;;;;;;;;;5078630;28;20200;-86
2022/06/01 00:43:19;;;;;;;2.67;1.23;;;;;;;;;;5087191;28;20227;-86
2022/06/01 00:45:49;;;;;;;0.50;0.50;;;;;;;;;;5089553;28;20226;-86
2022/06/01 00:48:18;;;;;;;0.70;0.70;;;;;;;;;;5088933;28;20236;-86
2022/06/01 00:50:47;;;;;;;2.10;0.77;;;;;;;;;;5089517;28;20207;-86
2022/06/01 00:53:17;;;;;;;1.80;1.70;;;;;;;;;;5089414;28;20203;-86
2022/06/01 00:55:47;;;;;;;0.50;0.50;;;;;;;;;;5089352;28;20278;-86
2022/06/01 00:58:19;;;;;;;1.00;1.00;;;;;;;;;;5088738;28;20235;-86
2022/06/01 01:00:50;;;;;;;0.50;0.50;;;;;;;;;;5089391;28;20202;-86
2022/06/01 01:03:19;;;;;;;0.50;0.50;;;;;;;;;;5072429;28;20207;-86
2022/06/01 01:05:49;;;;;;;1.33;0.87;;;;;;;;;;5072572;28;20214;-86
2022/06/01 01:08:17;;;;;;;2.47;2.30;;;;;;;;;;5088850;28;20228;-86
2022/06/01 01:10:46;;;;;;;1.93;1.20;;;;;;;;;;5059784;28;20195;-86
2022/06/01 01:13:15;;;;;;;0.70;0.70;;;;;;;;;;5088997;28;20199;-87
2022/06/01 01:15:51;;;;;;;1.27;1.17;;;;;;;;;;5072472;28;20195;-86
2022/06/01 01:18:27;;;;;;;2.40;1.43;;;;;;;;;;5073359;28;20205;-86
2022/06/01 01:21:03;;;;;;;3.33;1.90;;;;;;;;;;5089198;28;20398;-87
2022/06/01 01:23:38;;;;;;;3.03;2.07;;;;;;;;;;5088913;28;20229;-87
2022/06/01 01:26:08;;;;;;;4.20;1.87;;;;;;;;;;5055528;28;20224;-87
2022/06/01 01:28:36;;;;;;;6.40;1.40;;;;;;;;;;5082312;28;20240;-86
2022/06/01 01:31:07;;;;;;;2.07;1.97;;;;;;;;;;5074961;28;20201;-86
2022/06/01 01:33:35;;;;;;;3.27;2.30;;;;;;;;;;5075781;28;20292;-86
2022/06/01 01:36:06;;;;;;;3.40;2.20;;;;;;;;;;5092906;28;20252;-86
2022/06/01 01:38:41;;;;;;;3.90;2.30;;;;;;;;;;5092780;28;20201;-86
2022/06/01 01:41:12;;;;;;;2.33;1.87;;;;;;;;;;5076114;28;20197;-86
2022/06/01 01:43:44;;;;;;;2.97;2.20;;;;;;;;;;5076397;28;20221;-86
2022/06/01 01:46:13;;;;;;;3.73;2.60;;;;;;;;;;5075679;28;20268;-86
2022/06/01 01:48:42;;;;;;;4.57;2.90;;;;;;;;;;5076503;28;20253;-86
2022/06/01 01:51:12;;;;;;;3.70;2.63;;;;;;;;;;5092484;28;20213;-86
2022/06/01 01:53:41;;;;;;;5.00;2.87;;;;;;;;;;5092510;28;20201;-86
2022/06/01 01:56:23;;;;;;;5.97;3.53;;;;;;;;;;5076681;28;20194;-86
2022/06/01 01:59:11;;;;;;;6.03;5.43;;;;;;;;;;5076722;28;20205;-86
2022/06/01 02:01:44;;;;;;;8.07;4.00;;;;;;;;;;5076569;28;20239;-85
2022/06/01 02:06:59;;;;;;;3.37;2.30;;;;;;;;;;5076278;28;20213;-86
2022/06/01 02:12:40;;;;;;;3.30;2.33;;;;;;;;;;5076224;28;20204;-86
2022/06/01 02:15:05;;;;;;;9.20;7.60;;;;;;;;;;5092537;28;20201;-86
2022/06/01 02:17:36;;;;;;;6.13;5.23;;;;;;;;;;5092116;28;20201;-86
2022/06/01 02:20:07;;;;;;;6.50;4.80;;;;;;;;;;5092266;28;20198;-86
2022/06/01 02:22:38;;;;;;;5.43;3.90;;;;;;;;;;5092202;28;20280;-86
2022/06/01 02:25:07;;;;;;;6.97;5.77;;;;;;;;;;5076249;28;20260;-86
2022/06/01 02:27:37;;;;;;;6.00;4.97;;;;;;;;;;5091658;28;20267;-86
2022/06/01 02:30:08;;;;;;;6.50;4.07;;;;;;;;;;5092133;28;20209;-85
2022/06/01 02:32:37;;;;;;;5.83;5.00;;;;;;;;;;5091772;28;20190;-86
2022/06/01 02:35:07;;;;;;;7.17;5.00;;;;;;;;;;5091594;28;20209;-85
2022/06/01 02:37:36;;;;;;;7.23;4.20;;;;;;;;;;5075130;28;20202;-86
2022/06/01 02:40:07;;;;;;;4.83;3.70;;;;;;;;;;5075962;28;20207;-86
2022/06/01 02:42:44;;;;;;;5.17;4.63;;;;;;;;;;5091609;28;20224;-86
2022/06/01 02:45:13;;;;;;;6.93;4.63;;;;;;;;;;5074928;28;20209;-86
2022/06/01 02:47:42;;;;;;;8.23;5.50;;;;;;;;;;5091728;28;20225;-85
2022/06/01 02:50:12;;;;;;;8.73;5.97;;;;;;;;;;5074457;28;20238;-86
2022/06/01 02:52:41;;;;;;;8.07;7.17;;;;;;;;;;5091168;28;20198;-86
2022/06/01 02:55:09;;;;;;;10.23;7.70;;;;;;;;;;5075594;28;20205;-86
2022/06/01 02:57:41;;;;;;;8.63;6.37;;;;;;;;;;5074555;28;20193;-87
2022/06/01 03:00:17;;;;;;;12.10;8.73;;;;;;;;;;5075095;28;20197;-86
2022/06/01 03:02:46;;;;;;;7.33;6.60;;;;;;;;;;5075523;28;20280;-87
2022/06/01 03:05:15;;;;;;;7.33;6.63;;;;;;;;;;5074880;28;20201;-86
2022/06/01 03:07:44;;;;;;;9.10;8.20;;;;;;;;;;5091010;28;20296;-86
2022/06/01 03:10:12;;;;;;;7.90;4.83;;;;;;;;;;5091227;28;20185;-86
2022/06/01 03:12:42;;;;;;;10.53;8.07;;;;;;;;;;5075344;28;20205;-86
2022/06/01 03:15:13;;;;;;;8.13;7.30;;;;;;;;;;5090887;28;20199;-86
2022/06/01 03:17:41;;;;;;;7.67;6.13;;;;;;;;;;5074139;28;20205;-86
2022/06/01 03:20:11;;;;;;;8.83;6.60;;;;;;;;;;5090928;28;20255;-85
2022/06/01 03:22:41;;;;;;;6.07;5.10;;;;;;;;;;5091128;28;20194;-85
2022/06/01 03:25:10;;;;;;;8.13;5.83;;;;;;;;;;5090569;28;20255;-86
2022/06/01 03:27:39;;;;;;;4.20;3.80;;;;;;;;;;5074078;28;20216;-86
2022/06/01 03:30:11;;;;;;;7.13;6.13;;;;;;;;;;5074570;28;20202;-86
2022/06/01 03:32:40;;;;;;;9.00;8.10;;;;;;;;;;5090626;28;20268;-86
2022/06/01 03:35:09;;;;;;;9.47;7.73;;;;;;;;;;5090933;28;20209;-86
2022/06/01 03:37:37;;;;;;;7.47;6.43;;;;;;;;;;5090365;28;20202;-86
2022/06/01 03:40:06;;;;;;;7.67;6.03;;;;;;;;;;5073361;28;20202;-86
2022/06/01 03:42:35;;;;;;;4.50;4.10;;;;;;;;;;5090430;28;20263;-86
2022/06/01 03:47:52;;;;;;;7.93;5.50;;;;;;;;;;5074397;28;20248;-86
2022/06/01 03:50:20;;;;;;;8.93;8.03;;;;;;;;;;5073287;28;20256;-86
2022/06/01 03:52:48;;;;;;;7.73;5.97;;;;;;;;;;5072665;28;20205;-86
2022/06/01 03:55:17;;;;;;;8.17;6.53;;;;;;;;;;5074620;28;20247;-86
2022/06/01 03:57:46;;;;;;;4.37;3.80;;;;;;;;;;5074147;28;20273;-86
2022/06/01 04:00:16;;;;;;;7.97;6.37;;;;;;;;;;5073150;28;20193;-86
2022/06/01 04:02:44;;;;;;;9.37;5.90;;;;;;;;;;5090207;28;20201;-86
2022/06/01 04:05:14;;;;;;;2.77;2.47;;;;;;;;;;5073201;28;20209;-86
2022/06/01 04:07:43;;;;;;;0.80;0.80;;;;;;;;;;5074532;28;20225;-86
2022/06/01 04:10:11;;;;;;;0.93;0.93;;;;;;;;;;5090168;28;20288;-86
2022/06/01 04:12:40;;;;;;;0.50;0.50;;;;;;;;;;5089560;28;20267;-86
2022/06/01 04:15:09;;;;;;;2.07;2.03;;;;;;;;;;5090096;28;20198;-86
2022/06/01 04:17:38;;;;;;;0.50;0.50;;;;;;;;;;5073667;28;20198;-87
2022/06/01 04:20:08;;;;;;;1.73;1.63;;;;;;;;;;5089900;28;20204;-87
2022/06/01 04:22:39;;;;;;;0.67;0.67;;;;;;;;;;5089601;28;20198;-87
2022/06/01 04:25:09;;;;;;;3.87;3.07;;;;;;;;;;5073831;28;20209;-87
2022/06/01 04:27:38;;;;;;;3.20;2.57;;;;;;;;;;5073542;28;20263;-87
2022/06/01 04:30:07;;;;;;;3.93;2.73;;;;;;;;;;5073535;28;20198;-86
2022/06/01 04:32:36;;;;;;;3.30;3.00;;;;;;;;;;5072548;28;20198;-87
2022/06/01 04:35:05;;;;;;;4.10;2.77;;;;;;;;;;5072666;28;20205;-87
2022/06/01 04:37:33;;;;;;;3.83;3.00;;;;;;;;;;5089848;28;20194;-86
2022/06/01 04:40:11;;;;;;;6.43;3.80;;;;;;;;;;5089743;28;20197;-87
2022/06/01 04:42:39;;;;;;;4.93;3.20;;;;;;;;;;5089471;28;20214;-88
2022/06/01 04:45:09;;;;;;;4.27;3.53;;;;;;;;;;5073570;28;20197;-87
2022/06/01 04:47:37;;;;;;;3.80;3.37;;;;;;;;;;5089129;28;20245;-87
2022/06/01 04:50:06;;;;;;;5.27;3.87;;;;;;;;;;5073432;28;20229;-87
2022/06/01 04:52:35;;;;;;;2.63;2.23;;;;;;;;;;5073698;28;20209;-87
2022/06/01 04:55:04;;;;;;;1.50;1.40;;;;;;;;;;5059501;28;20209;-87
2022/06/01 04:57:33;;;;;;;0.60;0.60;;;;;;;;;;5072613;28;20299;-87
2022/06/01 05:00:02;;;;;;;2.50;2.13;;;;;;;;;;5084106;28;20206;-87
2022/06/01 05:02:31;;;;;;;0.93;0.93;;;;;;;;;;5080714;28;20205;-86
2022/06/01 05:04:59;;;;;;;2.10;1.63;;;;;;;;;;5073999;28;20217;-87
2022/06/01 05:07:27;;;;;;;1.00;1.00;;;;;;;;;;5093206;28;20200;-86
2022/06/01 05:09:56;;;;;;;2.10;1.63;;;;;;;;;;5093142;28;20197;-86
2022/06/01 05:12:24;;;;;;;1.03;1.03;;;;;;;;;;5077456;28;20203;-86
2022/06/01 05:14:54;;;;;;;1.20;1.20;;;;;;;;;;5092946;28;20200;-87
2022/06/01 05:17:22;;;;;;;0.97;0.97;;;;;;;;;;5076489;28;20212;-87
2022/06/01 05:19:51;;;;;;;0.50;0.50;;;;;;;;;;5077176;28;20216;-87
2022/06/01 05:22:19;;;;;;;0.50;0.50;;;;;;;;;;5076240;28;20202;-87
2022/06/01 05:24:50;;;;;;;0.40;0.40;;;;;;;;;;5092854;28;20205;-87
2022/06/01 05:27:19;;;;;;;1.60;1.60;;;;;;;;;;5093295;28;20201;-87
2022/06/01 05:29:47;;;;;;;2.10;2.00;;;;;;;;;;5076911;28;20221;-87
2022/06/01 05:32:17;;;;;;;0.50;0.50;;;;;;;;;;5093574;28;20228;-88
2022/06/01 05:34:45;;;;;;;0.40;0.40;;;;;;;;;;5077801;28;20199;-87
2022/06/01 05:37:14;;;;;;;2.07;1.97;;;;;;;;;;5082036;28;20206;-88
2022/06/01 05:39:42;;;;;;;0.60;0.60;;;;;;;;;;5091856;28;20225;-84
2022/06/01 05:42:11;;;;;;;0.60;0.60;;;;;;;;;;5084918;28;20190;-85
2022/06/01 05:44:40;;;;;;;0.30;0.30;;;;;;;;;;5093110;28;20226;-86
2022/06/01 05:47:08;;;;;;;0.50;0.50;;;;;;;;;;5077279;28;20204;-88
2022/06/01 05:49:39;;;;;;;2.10;1.80;;;;;;;;;;5078399;28;20258;-86
2022/06/01 05:52:07;;;;;;;1.40;1.27;;;;;;;;;;5095423;28;20468;-87
2022/06/01 05:54:36;;;;;;;0.67;0.67;;;;;;;;;;5077548;28;20214;-87
2022/06/01 05:57:05;;;;;;;1.00;1.00;;;;;;;;;;5092927;28;20210;-87
2022/06/01 05:59:33;;;;;;;0.70;0.70;;;;;;;;;;5077804;28;20200;-88
2022/06/01 06:02:02;;;;;;;2.30;1.63;;;;;;;;;;5077475;28;20253;-90
2022/06/01 06:04:30;;;;;;;0.50;0.50;;;;;;;;;;5093908;28;20199;-91
2022/06/01 06:07:00;;;;;;;0.47;0.47;;;;;;;;;;5092172;28;20237;-90
2022/06/01 06:09:28;;;;;;;0.60;0.60;;;;;;;;;;5075295;28;20212;-89
2022/06/01 06:11:57;;;;;;;1.40;0.80;;;;;;;;;;5075657;28;20208;-90
2022/06/01 06:14:25;;;;;;;0.53;0.53;;;;;;;;;;5076266;28;20204;-89
2022/06/01 06:16:54;;;;;;;1.93;1.63;;;;;;;;;;5075476;28;20219;-90
2022/06/01 06:19:22;;;;;;;0.63;0.63;;;;;;;;;;5092544;28;20204;-88
2022/06/01 06:21:51;;;;;;;3.70;0.67;;;;;;;;;;5091676;28;20202;-89
2022/06/01 06:24:22;;;;;;;0.87;0.87;;;;;;;;;;5074856;28;20205;-89
2022/06/01 06:26:52;;;;;;;1.93;1.80;;;;;;;;;;5092213;28;20219;-87
2022/06/01 06:29:23;;;;;;;1.33;1.23;;;;;;;;;;5076445;28;20216;-88
2022/06/01 06:31:52;;;;;;;1.27;1.17;;;;;;;;;;5092132;28;20226;-88
2022/06/01 06:34:20;;;;;;;0.97;0.97;;;;;;;;;;5092032;28;20200;-87
2022/06/01 06:36:52;;;;;;;1.50;1.40;;;;;;;;;;5092107;28;20209;-87
2022/06/01 06:39:42;;;;;;;1.97;1.73;;;;;;;;;;5090906;28;20290;-87
2022/06/01 06:42:12;;;;;;;0.90;0.90;;;;;;;;;;5068642;28;20201;-89
2022/06/01 06:44:41;;;;;;;2.40;2.20;;;;;;;;;;5071325;28;20230;-86
2022/06/01 06:47:19;;;;;;;0.93;0.93;;;;;;;;;;5065063;28;20291;-89
2022/06/01 06:53:03;;;;;;;0.60;0.60;;;;;;;;;;5077736;28;20205;-88
2022/06/01 06:56:12;;;;;;;0.53;0.53;;;;;;;;;;5081340;28;20265;-89
2022/06/01 06:59:12;;;;;;;1.50;1.40;;;;;;;;;;5056005;28;20297;-84
2022/06/01 07:01:53;;;;;;;0.70;0.70;;;;;;;;;;5081581;28;20212;-90
2022/06/01 07:04:49;;;;;;;0.53;0.53;;;;;;;;;;5056291;28;20292;-89
2022/06/01 07:07:24;;;;;;;1.10;1.10;;;;;;;;;;5087065;28;20217;-89
2022/06/01 07:09:56;;;;;;;0.73;0.73;;;;;;;;;;5062957;28;20225;-85
2022/06/01 07:12:34;;;;;;;2.43;1.03;;;;;;;;;;5076475;28;20209;-89
2022/06/01 07:15:39;;;;;;;1.40;1.30;;;;;;;;;;5077073;28;20201;-89
2022/06/01 07:18:12;;;;;;;0.67;0.67;;;;;;;;;;5073960;28;20209;-87
2022/06/01 07:20:42;;;;;;;0.50;0.50;;;;;;;;;;5062880;28;20217;-88
2022/06/01 07:23:13;;;;;;;0.67;0.67;;;;;;;;;;5064482;28;20209;-87
2022/06/01 07:29:42;;;;;;;0.77;0.77;;;;;;;;;;4969729;28;20229;-90
2022/06/01 07:32:21;;;;;;;0.77;0.77;;;;;;;;;;5075787;28;20205;-86
2022/06/01 07:35:12;;;;;;;6.33;0.97;;;;;;;;;;5059973;28;20224;-87
2022/06/01 07:43:25;;;;;;;1.77;1.47;;;;;;;;;;5076410;28;20229;-87
2022/06/01 07:46:13;;;;;;;1.27;1.17;;;;;;;;;;5063179;28;20201;-88
2022/06/01 07:48:53;;;;;;;0.70;0.70;;;;;;;;;;5065043;28;20241;-88
2022/06/01 07:52:17;;;;;;;0.67;0.67;;;;;;;;;;5057266;28;20206;-89
2022/06/01 07:55:02;;;;;;;0.80;0.80;;;;;;;;;;5077841;28;20227;-85
2022/06/01 07:57:51;;;;;;;0.80;0.80;;;;;;;;;;5071918;28;20271;-87
2022/06/01 08:00:30;;;;;;;2.33;1.13;;;;;;;;;;5058911;28;20224;-87
2022/06/01 08:02:59;;;;;;;2.13;1.93;;;;;;;;;;5061058;28;20205;-90
2022/06/01 08:05:33;;;;;;;2.63;1.50;;;;;;;;;;5075890;28;20206;-89
2022/06/01 08:08:06;;;;;;;0.70;0.70;;;;;;;;;;5076169;28;20310;-90
2022/06/01 08:10:42;;;;;;;1.50;1.40;;;;;;;;;;5075923;28;20313;-90
2022/06/01 08:13:11;;;;;;;0.90;0.90;;;;;;;;;;5060468;28;20208;-86
2022/06/01 08:15:44;;;;;;;0.77;0.77;;;;;;;;;;5080146;28;20197;-90
2022/06/01 08:18:14;;;;;;;1.07;1.07;;;;;;;;;;5061695;28;20212;-88
2022/06/01 08:20:53;;;;;;;2.23;1.40;;;;;;;;;;5062761;28;20223;-89
2022/06/01 08:23:25;;;;;;;0.77;0.77;;;;;;;;;;5075441;28;20211;-89
2022/06/01 08:25:56;;;;;;;0.93;0.93;;;;;;;;;;5078054;28;20205;-90
2022/06/01 08:28:35;;;;;;;1.03;0.97;;;;;;;;;;5088781;28;20202;-90
2022/06/01 08:31:05;;;;;;;2.97;1.03;;;;;;;;;;5069534;28;20217;-88
2022/06/01 08:33:40;;;;;;;3.20;1.83;;;;;;;;;;5079924;28;20197;-88
2022/06/01 08:36:30;;;;;;;1.50;1.40;;;;;;;;;;5060730;28;20323;-88
2022/06/01 08:39:08;;;;;;;1.57;1.00;;;;;;;;;;5066940;28;20201;-90
2022/06/01 08:41:42;;;;;;;1.57;1.47;;;;;;;;;;5097196;28;20223;-87
2022/06/01 08:44:19;;;;;;;0.77;0.77;;;;;;;;;;5065481;28;20252;-90
2022/06/01 08:46:56;;;;;;;1.10;1.00;;;;;;;;;;5070643;28;20209;-84
2022/06/01 08:49:41;;;;;;;1.00;1.00;;;;;;;;;;5078737;28;20240;-91
2022/06/01 08:52:14;;;;;;;0.87;0.87;;;;;;;;;;5060195;28;20202;-91
2022/06/01 08:54:45;;;;;;;1.80;1.30;;;;;;;;;;5081673;28;20204;-89
2022/06/01 08:57:24;;;;;;;0.60;0.60;;;;;;;;;;5059542;28;20252;-88
2022/06/01 08:59:56;;;;;;;2.57;1.47;;;;;;;;;;5072647;28;20204;-89
2022/06/01 09:02:50;;;;;;;1.67;1.40;;;;;;;;;;5073929;28;20214;-89
2022/06/01 09:05:36;;;;;;;1.87;1.00;;;;;;;;;;5076658;28;20488;-89
2022/06/01 09:08:23;;;;;;;2.00;1.80;;;;;;;;;;5077574;28;20193;-90
2022/06/01 09:11:06;;;;;;;2.17;1.27;;;;;;;;;;5075111;28;20229;-89
2022/06/01 09:13:46;;;;;;;1.87;1.70;;;;;;;;;;5073023;28;20206;-89
2022/06/01 09:16:20;;;;;;;1.80;1.70;;;;;;;;;;5076519;28;20209;-89
2022/06/01 09:18:53;;;;;;;2.17;1.77;;;;;;;;;;5059737;28;20212;-88
2022/06/01 09:24:22;;;;;;;1.03;0.80;;;;;;;;;;5044317;28;20216;-90
2022/06/01 09:26:55;;;;;;;1.70;1.60;;;;;;;;;;5078165;28;20209;-87
2022/06/01 09:29:34;;;;;;;1.33;1.23;;;;;;;;;;5079686;28;20202;-89
2022/06/01 09:32:07;;;;;;;1.40;1.13;;;;;;;;;;5057923;28;20252;-88
2022/06/01 09:34:47;;;;;;;2.80;2.00;;;;;;;;;;5062647;28;20221;-87
2022/06/01 09:37:26;;;;;;;3.07;1.70;;;;;;;;;;5081643;28;20209;-88
2022/06/01 09:40:05;;;;;;;1.90;1.80;;;;;;;;;;5060857;28;20235;-88
2022/06/01 09:42:37;;;;;;;1.33;1.23;;;;;;;;;;5057691;28;20209;-87
2022/06/01 09:45:27;;;;;;;2.43;1.50;;;;;;;;;;5080296;28;20270;-88
2022/06/01 09:48:12;;;;;;;2.23;1.70;;;;;;;;;;5077529;28;20202;-87
2022/06/01 09:50:48;;;;;;;1.33;1.23;;;;;;;;;;5075097;28;20290;-89
2022/06/01 09:53:22;;;;;;;1.90;1.73;;;;;;;;;;5085563;28;20250;-88
2022/06/01 09:55:54;;;;;;;1.83;1.73;;;;;;;;;;5080107;28;20232;-88
2022/06/01 10:07:37;;;;;;;2.50;1.13;;;;;;;;;;5080928;28;20206;-89
2022/06/01 10:10:24;;;;;;;3.43;1.70;;;;;;;;;;5065978;28;20259;-86
2022/06/01 10:13:01;;;;;;;2.10;1.90;;;;;;;;;;5080276;28;20234;-87
2022/06/01 10:15:42;;;;;;;1.97;1.13;;;;;;;;;;5086047;28;20198;-88
2022/06/01 10:18:22;;;;;;;0.80;0.80;;;;;;;;;;5083523;28;20205;-92
2022/06/01 10:21:10;;;;;;;1.73;1.63;;;;;;;;;;5081642;28;20205;-90
2022/06/01 10:23:46;;;;;;;1.70;1.60;;;;;;;;;;5080243;28;20216;-89
2022/06/01 10:32:55;;;;;;;2.47;2.10;;;;;;;;;;5076629;28;20198;-84
2022/06/01 11:07:18;;;;;;;1.40;1.30;;;;;;;;;;4804628;29;20245;-86
2022/06/01 11:10:04;;;;;;;0.80;0.80;;;;;;;;;;4860455;29;20304;-86
2022/06/01 11:16:09;;;;;;;;;;;;;;;;;;;;;
2022/06/01 11:19:28;;;;;;;3.17;2.60;;;;;;;;;;4945914;28;20210;-87
2022/06/01 11:26:22;;;;;;;2.40;2.10;;;;;;;;;;4911852;28;20260;-87
2022/06/01 11:29:40;;;;;;;2.83;2.60;;;;;;;;;;4999100;28;20337;-87
2022/06/01 11:32:37;;;;;;;4.17;2.80;;;;;;;;;;5018252;28;20312;-86
2022/06/01 11:35:28;;;;;;;4.97;2.60;;;;;;;;;;5076579;28;20205;-87
2022/06/01 11:38:31;;;;;;;2.27;2.07;;;;;;;;;;5075770;28;20199;-85
2022/06/01 11:41:10;;;;;;;2.03;1.90;;;;;;;;;;5078599;28;20268;-86
2022/06/01 12:02:44;;;;;;;1.90;1.70;;;;;;;;;;4953738;28;20262;-83
2022/06/01 12:08:38;;;;;;;4.00;3.67;;;;;;;;;;5024289;28;20213;-84
2022/06/01 12:18:18;;;;;;;2.00;1.90;;;;;;;;;;5030766;28;20210;-84
2022/06/01 12:21:18;;;;;;;1.20;1.13;;;;;;;;;;5077484;28;20226;-83
2022/06/01 12:29:59;;;;;;;1.83;1.73;;;;;;;;;;5076812;28;20296;-86
2022/06/01 12:32:29;;;;;;;2.23;2.03;;;;;;;;;;5081773;28;20291;-84
2022/06/01 12:35:46;;;;;;;4.20;2.10;;;;;;;;;;5073870;28;20227;-84
2022/06/01 12:38:42;;;;;;;3.23;2.47;;;;;;;;;;5012527;28;20201;-87
2022/06/01 12:41:25;;;;;;;4.83;1.67;;;;;;;;;;5036224;28;20219;-85
2022/06/01 12:54:27;;;;;;;1.57;1.47;;;;;;;;;;4987674;28;20197;-83
2022/06/01 12:57:43;;;;;;;;;;;;;;;;;;;;;
2022/06/01 13:08:37;;;;;;;1.53;1.43;;;;;;;;;;4918071;29;20228;-89
2022/06/01 13:11:22;;;;;;;1.03;1.03;;;;;;;;;;5000307;28;20208;-88
2022/06/01 13:14:28;;;;;;;;;;;;;;;;;;;;;
2022/06/01 13:17:26;;;;;;;0.97;0.97;;;;;;;;;;5003579;28;20208;-87
2022/06/01 13:23:30;;;;;;;3.17;2.23;;;;;;;;;;5024321;28;20277;-88
2022/06/01 13:26:23;;;;;;;1.77;1.67;;;;;;;;;;5007557;28;20225;-88
2022/06/01 13:37:33;;;;;;;1.97;1.60;;;;;;;;;;4890938;29;20215;-87
2022/06/01 13:40:26;;;;;;;1.63;1.53;;;;;;;;;;4923448;29;20214;-83
2022/06/01 14:28:28;;;;;;;2.23;2.13;;;;;;;;;;4924409;28;20202;-87
2022/06/01 15:41:25;;;;;;;1.37;1.27;;;;;;;;;;4952141;29;20214;-85
2022/06/01 15:43:55;;;;;;;1.17;1.10;;;;;;;;;;4936956;29;20227;-85
2022/06/01 15:46:27;;;;;;;0.60;0.60;;;;;;;;;;4936173;29;20207;-85
2022/06/01 15:48:57;;;;;;;0.70;0.70;;;;;;;;;;4951171;28;20214;-85
2022/06/01 15:51:26;;;;;;;2.07;1.00;;;;;;;;;;4934298;29;20200;-85
2022/06/01 15:53:54;;;;;;;1.27;1.07;;;;;;;;;;4936852;29;20216;-85
2022/06/01 15:56:23;;;;;;;1.30;1.20;;;;;;;;;;4936951;29;20202;-85
2022/06/01 15:58:52;;;;;;;0.70;0.70;;;;;;;;;;4920321;29;20202;-85
2022/06/01 16:01:21;;;;;;;0.60;0.60;;;;;;;;;;4952137;29;20203;-85
2022/06/01 16:03:50;;;;;;;0.70;0.70;;;;;;;;;;4924832;29;20209;-85
2022/06/01 16:06:41;;;;;;;2.40;1.20;;;;;;;;;;4935520;29;20267;-85
2022/06/01 16:09:10;;;;;;;0.90;0.90;;;;;;;;;;4951788;29;20210;-85
2022/06/01 16:11:42;;;;;;;0.80;0.80;;;;;;;;;;4951805;29;20289;-85
2022/06/01 16:14:10;;;;;;;0.80;0.80;;;;;;;;;;4929621;29;20210;-85
2022/06/01 16:16:40;;;;;;;1.27;1.17;;;;;;;;;;4935730;29;20209;-85
2022/06/01 16:19:09;;;;;;;0.80;0.80;;;;;;;;;;4936663;29;20202;-85
2022/06/01 16:21:40;;;;;;;0.80;0.80;;;;;;;;;;4930919;29;20198;-85
2022/06/01 16:24:10;;;;;;;1.27;1.00;;;;;;;;;;4951253;29;20205;-85
2022/06/01 16:26:39;;;;;;;0.80;0.80;;;;;;;;;;4951357;29;20206;-85
2022/06/01 16:29:10;;;;;;;1.10;1.10;;;;;;;;;;4935395;29;20201;-85
2022/06/01 16:31:40;;;;;;;0.93;0.93;;;;;;;;;;4951789;29;20230;-85
2022/06/01 16:34:09;;;;;;;0.93;0.90;;;;;;;;;;4930597;29;20269;-85
2022/06/01 16:36:37;;;;;;;1.33;0.93;;;;;;;;;;4919365;29;20305;-85
2022/06/01 16:39:07;;;;;;;1.20;1.20;;;;;;;;;;4919274;29;20209;-85
2022/06/01 16:41:57;;;;;;;0.80;0.80;;;;;;;;;;4936474;29;20202;-85
2022/06/01 16:44:26;;;;;;;0.60;0.60;;;;;;;;;;4951227;28;20238;-85
2022/06/01 16:46:54;;;;;;;1.90;1.17;;;;;;;;;;4919665;29;20206;-86
2022/06/01 16:49:25;;;;;;;0.70;0.70;;;;;;;;;;4936327;29;20302;-86
2022/06/01 16:51:53;;;;;;;0.93;0.90;;;;;;;;;;4919821;29;20431;-86
2022/06/01 16:54:21;;;;;;;0.70;0.70;;;;;;;;;;4919321;29;20237;-85
2022/06/01 16:56:50;;;;;;;0.80;0.80;;;;;;;;;;4935252;29;20273;-86
2022/06/01 16:59:20;;;;;;;4.33;0.87;;;;;;;;;;4941950;29;20236;-86
2022/06/01 17:01:49;;;;;;;1.10;1.10;;;;;;;;;;4950430;29;20199;-86
2022/06/01 17:04:17;;;;;;;0.90;0.90;;;;;;;;;;4950820;29;20212;-86
2022/06/01 17:06:46;;;;;;;2.47;0.67;;;;;;;;;;4951096;29;20239;-86
2022/06/01 17:09:14;;;;;;;0.80;0.80;;;;;;;;;;4919138;29;20253;-86
2022/06/01 17:11:43;;;;;;;3.07;1.50;;;;;;;;;;4951098;29;20242;-86
2022/06/01 17:14:12;;;;;;;1.13;1.03;;;;;;;;;;4950661;29;20221;-86
2022/06/01 17:16:43;;;;;;;0.60;0.60;;;;;;;;;;4935993;29;20239;-86
2022/06/01 17:19:11;;;;;;;1.07;1.07;;;;;;;;;;4924286;29;20206;-85
2022/06/01 17:21:40;;;;;;;1.67;1.03;;;;;;;;;;4935293;29;20214;-86
2022/06/01 17:24:08;;;;;;;1.00;1.00;;;;;;;;;;4919148;29;20195;-86
2022/06/01 17:26:37;;;;;;;1.17;1.07;;;;;;;;;;4950900;29;20215;-86
2022/06/01 17:29:06;;;;;;;2.37;0.90;;;;;;;;;;4925124;29;20208;-87
2022/06/01 17:31:36;;;;;;;0.80;0.80;;;;;;;;;;4934854;29;20204;-86
2022/06/01 17:34:06;;;;;;;1.40;1.00;;;;;;;;;;4910000;29;20246;-86
2022/06/01 17:36:36;;;;;;;0.90;0.90;;;;;;;;;;4913000;29;20207;-87
2022/06/01 17:39:04;;;;;;;1.97;1.37;;;;;;;;;;4897946;29;20216;-86
2022/06/01 17:41:33;;;;;;;0.73;0.73;;;;;;;;;;4913122;29;20208;-87
2022/06/01 17:44:01;;;;;;;0.80;0.80;;;;;;;;;;4898065;29;20227;-88
2022/06/01 17:46:30;;;;;;;1.43;1.27;;;;;;;;;;4896862;29;20216;-87
2022/06/01 17:48:58;;;;;;;0.90;0.90;;;;;;;;;;4896838;29;20211;-87
2022/06/01 17:51:28;;;;;;;0.57;0.57;;;;;;;;;;4912640;29;20208;-86
2022/06/01 17:53:57;;;;;;;1.77;1.10;;;;;;;;;;4912865;29;20229;-87
2022/06/01 17:56:29;;;;;;;1.87;1.20;;;;;;;;;;4896982;29;20208;-87
2022/06/01 17:58:58;;;;;;;0.77;0.77;;;;;;;;;;4912365;29;20213;-87
2022/06/01 18:01:27;;;;;;;0.90;0.73;;;;;;;;;;4912529;29;20305;-87
2022/06/01 18:03:56;;;;;;;1.17;1.07;;;;;;;;;;4912738;29;20211;-87
2022/06/01 18:06:25;;;;;;;0.60;0.60;;;;;;;;;;4896802;29;20211;-87
2022/06/01 18:08:54;;;;;;;0.60;0.60;;;;;;;;;;4912760;29;20215;-87
2022/06/01 18:11:24;;;;;;;0.67;0.67;;;;;;;;;;4896904;29;20208;-87
2022/06/01 18:13:53;;;;;;;0.37;0.37;;;;;;;;;;4914945;29;20245;-87
2022/06/01 18:16:23;;;;;;;1.47;1.37;;;;;;;;;;4916190;29;20221;-85
2022/06/01 18:18:52;;;;;;;0.63;0.63;;;;;;;;;;4915755;29;20213;-85
2022/06/01 18:21:20;;;;;;;2.97;1.17;;;;;;;;;;4915572;29;20219;-85
2022/06/01 18:23:50;;;;;;;2.10;0.70;;;;;;;;;;4899951;29;20215;-84
2022/06/01 18:26:20;;;;;;;1.13;0.93;;;;;;;;;;4915751;29;20203;-84
2022/06/01 18:28:49;;;;;;;0.60;0.60;;;;;;;;;;4900965;29;20218;-87
2022/06/01 18:31:21;;;;;;;0.37;0.37;;;;;;;;;;4899382;29;20214;-86
2022/06/01 18:33:49;;;;;;;1.10;0.60;;;;;;;;;;4920487;29;20229;-87
2022/06/01 18:36:18;;;;;;;0.60;0.60;;;;;;;;;;4963680;28;20209;-87
2022/06/01 18:38:47;;;;;;;1.17;1.03;;;;;;;;;;4957444;28;20202;-86
2022/06/01 18:41:16;;;;;;;1.03;0.97;;;;;;;;;;4921516;29;20290;-86
2022/06/01 18:43:46;;;;;;;1.30;1.00;;;;;;;;;;4921645;29;20359;-86
2022/06/01 18:46:16;;;;;;;0.50;0.50;;;;;;;;;;4953238;29;20207;-86
2022/06/01 18:48:49;;;;;;;0.57;0.57;;;;;;;;;;4921607;29;20203;-87
2022/06/01 18:51:23;;;;;;;2.27;0.40;;;;;;;;;;4908799;29;20259;-86
2022/06/01 18:53:52;;;;;;;0.53;0.53;;;;;;;;;;4938390;29;20222;-86
2022/06/01 18:56:22;;;;;;;0.90;0.90;;;;;;;;;;4925468;29;20211;-86
2022/06/01 18:58:52;;;;;;;0.50;0.50;;;;;;;;;;4938251;29;20200;-86
2022/06/01 19:01:33;;;;;;;0.67;0.67;;;;;;;;;;4921236;29;20206;-86
2022/06/01 19:04:02;;;;;;;0.93;0.87;;;;;;;;;;4938412;29;20244;-86
2022/06/01 19:06:31;;;;;;;1.17;1.07;;;;;;;;;;4923481;29;20200;-86
2022/06/01 19:09:00;;;;;;;0.90;0.90;;;;;;;;;;4938132;29;20212;-86
2022/06/01 19:11:29;;;;;;;1.73;1.10;;;;;;;;;;4937633;29;20305;-86
2022/06/01 19:13:59;;;;;;;3.50;1.00;;;;;;;;;;4921358;29;20309;-86
2022/06/01 19:16:32;;;;;;;2.00;1.57;;;;;;;;;;4952519;29;20203;-86
2022/06/01 19:19:02;;;;;;;1.73;1.30;;;;;;;;;;4952806;29;20206;-86
2022/06/01 19:21:31;;;;;;;0.83;0.83;;;;;;;;;;4920571;29;20212;-86
2022/06/01 19:24:06;;;;;;;1.20;1.03;;;;;;;;;;4937559;29;20210;-86
2022/06/01 19:26:35;;;;;;;0.60;0.60;;;;;;;;;;4933776;29;20198;-86
2022/06/01 19:29:06;;;;;;;0.80;0.80;;;;;;;;;;4920661;29;20206;-86
2022/06/01 19:31:34;;;;;;;1.13;1.03;;;;;;;;;;4952182;29;20211;-85
2022/06/01 19:34:03;;;;;;;0.60;0.60;;;;;;;;;;4952277;29;20277;-86
2022/06/01 19:44:50;;;;;;;0.67;0.67;;;;;;;;;;4936244;29;20215;-86
2022/06/01 19:47:19;;;;;;;0.60;0.60;;;;;;;;;;4937313;29;20213;-86
2022/06/01 19:49:47;;;;;;;0.30;0.30;;;;;;;;;;4937091;29;20261;-85
2022/06/01 19:52:16;;;;;;;0.73;0.60;;;;;;;;;;4936493;29;20209;-85